Time,TemperatureF,DewpointF,PressureIn,WindDirection,WindDirectionDegrees,WindSpeedMPH,WindSpeedGustMPH,Humidity,HourlyPrecipIn,Conditions,Clouds,dailyrainin,SoftwareType,DateUTC
2013-07-17 00:08:00,80.2,73.0,26.93,NNE,19,0.0,-999.0,79,-99.99,,,0.00,weatherlink.com 1.10,2013-07-17 04:08:00,
2013-07-17 00:23:00,79.8,73.0,26.93,NNE,19,0.0,-999.0,80,-99.99,,,0.00,weatherlink.com 1.10,2013-07-17 04:23:00,
2013-07-17 00:38:00,79.4,73.0,26.93,NNE,19,0.0,-999.0,81,-99.99,,,0.00,weatherlink.com 1.10,2013-07-17 04:38:00,
2013-07-17 00:53:00,79.2,73.0,26.93,NNE,18,0.0,-999.0,82,-99.99,,,0.00,weatherlink.com 1.10,2013-07-17 04:53:00,
2013-07-17 01:08:00,78.8,73.0,26.93,NNE,18,0.0,-999.0,82,-99.99,,,0.00,weatherlink.com 1.10,2013-07-17 05:08:00,
2013-07-17 01:23:00,78.6,73.0,26.93,NNE,19,0.0,-999.0,83,-99.99,,,0.00,weatherlink.com 1.10,2013-07-17 05:23:00,
2013-07-17 01:38:00,78.3,73.0,26.93,NNE,19,0.0,-999.0,84,-99.99,,,0.00,weatherlink.com 1.10,2013-07-17 05:38:00,
2013-07-17 01:53:00,78.0,73.0,26.93,NNE,19,0.0,-999.0,85,-99.99,,,0.00,weatherlink.com 1.10,2013-07-17 05:53:00,
2013-07-17 02:08:00,77.8,73.0,26.93,NNE,18,0.0,-999.0,85,-99.99,,,0.00,weatherlink.com 1.10,2013-07-17 06:08:00,
2013-07-17 02:23:00,77.6,73.0,26.93,NNE,19,0.0,-999.0,86,-99.99,,,0.00,weatherlink.com 1.10,2013-07-17 06:23:00,
2013-07-17 02:39:00,77.3,73.0,26.93,NNE,19,0.0,-999.0,86,-99.99,,,0.00,weatherlink.com 1.10,2013-07-17 06:39:00,
2013-07-17 02:54:00,77.1,73.0,26.93,NNE,19,0.0,-999.0,87,-99.99,,,0.00,weatherlink.com 1.10,2013-07-17 06:54:00,
2013-07-17 03:08:00,77.0,73.0,26.93,NNE,18,0.0,-999.0,87,-99.99,,,0.00,weatherlink.com 1.10,2013-07-17 07:08:00,
2013-07-17 03:23:00,76.7,73.0,26.93,NNE,18,0.0,-999.0,87,-99.99,,,0.00,weatherlink.com 1.10,2013-07-17 07:23:00,
2013-07-17 03:39:00,76.6,73.0,26.93,NNE,19,0.0,-999.0,88,-99.99,,,0.00,weatherlink.com 1.10,2013-07-17 07:39:00,
2013-07-17 03:53:00,76.5,73.0,26.93,NNE,18,0.0,-999.0,89,-99.99,,,0.00,weatherlink.com 1.10,2013-07-17 07:53:00,
2013-07-17 04:09:00,76.5,73.0,26.93,NNE,18,0.0,-999.0,89,-99.99,,,0.00,weatherlink.com 1.10,2013-07-17 08:09:00,
2013-07-17 04:24:00,76.6,73.0,26.93,NNE,19,0.0,-999.0,89,-99.99,,,0.00,weatherlink.com 1.10,2013-07-17 08:24:00,
2013-07-17 04:39:00,76.7,73.0,26.93,NNE,19,0.0,-999.0,89,-99.99,,,0.00,weatherlink.com 1.10,2013-07-17 08:39:00,
2013-07-17 04:54:00,76.7,73.0,26.93,NNE,19,0.0,-999.0,89,-99.99,,,0.00,weatherlink.com 1.10,2013-07-17 08:54:00,
2013-07-17 05:09:00,76.9,74.0,26.93,NNE,19,0.0,-999.0,89,-99.99,,,0.00,weatherlink.com 1.10,2013-07-17 09:09:00,
2013-07-17 05:24:00,76.9,74.0,26.93,NNE,19,0.0,-999.0,89,-99.99,,,0.00,weatherlink.com 1.10,2013-07-17 09:24:00,
2013-07-17 05:39:00,76.8,73.0,26.93,NNE,19,0.0,-999.0,89,-99.99,,,0.00,weatherlink.com 1.10,2013-07-17 09:39:00,
2013-07-17 05:54:00,76.6,74.0,26.93,NNE,19,0.0,-999.0,90,-99.99,,,0.00,weatherlink.com 1.10,2013-07-17 09:54:00,
2013-07-17 06:09:00,76.5,74.0,26.93,NNE,18,0.0,-999.0,90,-99.99,,,0.00,weatherlink.com 1.10,2013-07-17 10:09:00,
2013-07-17 06:24:00,76.5,74.0,26.93,NNE,18,0.0,-999.0,90,-99.99,,,0.00,weatherlink.com 1.10,2013-07-17 10:24:00,
2013-07-17 06:38:00,76.6,74.0,26.93,NNE,19,0.0,-999.0,91,-99.99,,,0.00,weatherlink.com 1.10,2013-07-17 10:38:00,
2013-07-17 06:53:00,76.7,74.0,26.93,NNE,19,0.0,-999.0,91,-99.99,,,0.00,weatherlink.com 1.10,2013-07-17 10:53:00,
2013-07-17 07:08:00,76.9,74.0,26.93,NNE,18,0.0,-999.0,91,-99.99,,,0.00,weatherlink.com 1.10,2013-07-17 11:08:00,
2013-07-17 07:23:00,77.4,75.0,26.93,NNE,19,0.0,-999.0,91,-99.99,,,0.00,weatherlink.com 1.10,2013-07-17 11:23:00,
2013-07-17 07:39:00,78.3,75.0,26.93,NNE,18,0.0,-999.0,88,-99.99,,,0.00,weatherlink.com 1.10,2013-07-17 11:39:00,
2013-07-17 07:54:00,81.0,75.0,26.93,NW,304,1.0,-999.0,83,-99.99,,,0.00,weatherlink.com 1.10,2013-07-17 11:54:00,
2013-07-17 08:09:00,83.0,76.0,26.93,NW,322,0.0,-999.0,79,-99.99,,,0.00,weatherlink.com 1.10,2013-07-17 12:09:00,
2013-07-17 08:24:00,84.0,77.0,26.93,NW,308,1.0,-999.0,78,-99.99,,,0.00,weatherlink.com 1.10,2013-07-17 12:24:00,
2013-07-17 08:39:00,85.2,78.0,26.93,NW,312,0.0,-999.0,78,-99.99,,,0.00,weatherlink.com 1.10,2013-07-17 12:39:00,
2013-07-17 08:54:00,86.0,78.0,26.93,NW,325,0.0,-999.0,76,-99.99,,,0.00,weatherlink.com 1.10,2013-07-17 12:54:00,
2013-07-17 09:09:00,86.6,77.0,26.93,WNW,291,0.0,-999.0,74,-99.99,,,0.00,weatherlink.com 1.10,2013-07-17 13:09:00,
2013-07-17 09:24:00,86.1,77.0,26.93,NW,313,0.0,-999.0,75,-99.99,,,0.00,weatherlink.com 1.10,2013-07-17 13:24:00,
2013-07-17 09:39:00,87.2,78.0,26.93,NW,313,1.0,-999.0,74,-99.99,,,0.00,weatherlink.com 1.10,2013-07-17 13:39:00,
2013-07-17 09:54:00,88.5,78.0,26.93,NW,304,1.0,-999.0,72,-99.99,,,0.00,weatherlink.com 1.10,2013-07-17 13:54:00,
2013-07-17 10:09:00,89.5,78.0,26.93,North,5,0.0,-999.0,68,-99.99,,,0.00,weatherlink.com 1.10,2013-07-17 14:09:00,
2013-07-17 10:24:00,90.3,79.0,26.93,NW,306,0.0,-999.0,69,-99.99,,,0.00,weatherlink.com 1.10,2013-07-17 14:24:00,
2013-07-17 10:40:00,90.3,79.0,26.93,WNW,287,0.0,-999.0,69,-99.99,,,0.00,weatherlink.com 1.10,2013-07-17 14:40:00,
2013-07-17 10:55:00,91.0,80.0,26.93,NW,315,0.0,-999.0,69,-99.99,,,0.00,weatherlink.com 1.10,2013-07-17 14:55:00,
2013-07-17 11:10:00,90.8,78.0,26.93,WNW,302,0.0,-999.0,66,-99.99,,,0.00,weatherlink.com 1.10,2013-07-17 15:10:00,
2013-07-17 11:25:00,90.8,77.0,26.93,WNW,302,1.0,-999.0,65,-99.99,,,0.00,weatherlink.com 1.10,2013-07-17 15:25:00,
2013-07-17 11:40:00,91.1,78.0,26.93,WNW,292,1.0,-999.0,65,-99.99,,,0.00,weatherlink.com 1.10,2013-07-17 15:40:00,
2013-07-17 11:55:00,92.0,76.0,26.93,NW,313,0.0,-999.0,60,-99.99,,,0.00,weatherlink.com 1.10,2013-07-17 15:55:00,
2013-07-17 12:11:00,93.0,75.0,26.93,NW,324,1.0,-999.0,56,-99.99,,,0.00,weatherlink.com 1.10,2013-07-17 16:11:00,
2013-07-17 12:25:00,93.6,76.0,26.93,NNW,338,0.0,-999.0,57,-99.99,,,0.00,weatherlink.com 1.10,2013-07-17 16:25:00,
2013-07-17 12:39:00,93.6,76.0,26.93,NE,46,0.0,-999.0,57,-99.99,,,0.00,weatherlink.com 1.10,2013-07-17 16:39:00,
2013-07-17 12:54:00,92.8,76.0,26.93,ESE,110,0.0,-999.0,59,-99.99,,,0.00,weatherlink.com 1.10,2013-07-17 16:54:00,
2013-07-17 13:09:00,93.0,78.0,26.93,ESE,106,0.0,-999.0,62,-99.99,,,0.00,weatherlink.com 1.10,2013-07-17 17:09:00,
2013-07-17 13:24:00,93.2,77.0,26.93,NNE,25,1.0,-999.0,60,-99.99,,,0.00,weatherlink.com 1.10,2013-07-17 17:24:00,
2013-07-17 13:40:00,93.2,78.0,26.93,NW,312,0.0,-999.0,61,-99.99,,,0.00,weatherlink.com 1.10,2013-07-17 17:40:00,
2013-07-17 13:55:00,93.0,78.0,26.93,SSE,156,1.0,-999.0,62,-99.99,,,0.00,weatherlink.com 1.10,2013-07-17 17:55:00,
2013-07-17 14:10:00,93.0,77.0,26.93,NNE,25,0.0,-999.0,60,-99.99,,,0.00,weatherlink.com 1.10,2013-07-17 18:10:00,
2013-07-17 14:25:00,92.4,78.0,26.93,NW,323,0.0,-999.0,62,-99.99,,,0.00,weatherlink.com 1.10,2013-07-17 18:25:00,
2013-07-17 14:40:00,92.4,77.0,26.93,NW,304,0.0,-999.0,60,-99.99,,,0.00,weatherlink.com 1.10,2013-07-17 18:40:00,
2013-07-17 14:55:00,92.0,76.0,26.93,West,266,0.0,-999.0,60,-99.99,,,0.00,weatherlink.com 1.10,2013-07-17 18:55:00,
2013-07-17 15:10:00,92.8,77.0,26.93,SW,233,0.0,-999.0,60,-99.99,,,0.00,weatherlink.com 1.10,2013-07-17 19:10:00,
2013-07-17 15:25:00,93.1,78.0,26.93,WSW,241,0.0,-999.0,61,-99.99,,,0.00,weatherlink.com 1.10,2013-07-17 19:25:00,
2013-07-17 15:40:00,92.0,76.0,26.93,SE,128,1.0,-999.0,60,-99.99,,,0.00,weatherlink.com 1.10,2013-07-17 19:40:00,
2013-07-17 15:55:00,93.3,77.0,26.93,ESE,108,0.0,-999.0,60,-99.99,,,0.00,weatherlink.com 1.10,2013-07-17 19:55:00,
2013-07-17 16:25:00,93.9,77.0,26.93,ESE,118,1.0,-999.0,58,-99.99,,,0.00,weatherlink.com 1.10,2013-07-17 20:25:00,
2013-07-17 16:40:00,93.8,78.0,26.93,SE,130,0.0,-999.0,61,-99.99,,,0.00,weatherlink.com 1.10,2013-07-17 20:40:00,
2013-07-17 16:55:00,93.5,80.0,26.93,ESE,121,0.0,-999.0,65,-99.99,,,0.00,weatherlink.com 1.10,2013-07-17 20:55:00,
2013-07-17 17:10:00,92.5,80.0,26.93,ESE,121,0.0,-999.0,66,-99.99,,,0.00,weatherlink.com 1.10,2013-07-17 21:10:00,
2013-07-17 17:25:00,91.8,79.0,26.93,ESE,121,0.0,-999.0,67,-99.99,,,0.00,weatherlink.com 1.10,2013-07-17 21:25:00,
2013-07-17 17:40:00,91.7,80.0,26.93,ESE,121,0.0,-999.0,68,-99.99,,,0.00,weatherlink.com 1.10,2013-07-17 21:40:00,
2013-07-17 17:55:00,91.4,79.0,26.93,ESE,121,0.0,-999.0,67,-99.99,,,0.00,weatherlink.com 1.10,2013-07-17 21:55:00,
2013-07-17 18:25:00,90.7,79.0,26.93,ESE,121,0.0,-999.0,69,-99.99,,,0.00,weatherlink.com 1.10,2013-07-17 22:25:00,
2013-07-17 18:40:00,90.2,78.0,26.93,ESE,115,0.0,-999.0,68,-99.99,,,0.00,weatherlink.com 1.10,2013-07-17 22:40:00,
2013-07-17 18:55:00,90.0,78.0,26.93,ESE,115,0.0,-999.0,68,-99.99,,,0.00,weatherlink.com 1.10,2013-07-17 22:55:00,
2013-07-17 19:10:00,89.8,78.0,26.93,NE,49,0.0,-999.0,69,-99.99,,,0.00,weatherlink.com 1.10,2013-07-17 23:10:00,
2013-07-17 19:25:00,89.6,78.0,26.93,NE,51,0.0,-999.0,68,-99.99,,,0.00,weatherlink.com 1.10,2013-07-17 23:25:00,
2013-07-17 19:40:00,89.1,78.0,26.93,NE,51,0.0,-999.0,69,-99.99,,,0.00,weatherlink.com 1.10,2013-07-17 23:40:00,
2013-07-17 19:55:00,88.5,78.0,26.93,NE,51,0.0,-999.0,70,-99.99,,,0.00,weatherlink.com 1.10,2013-07-17 23:55:00,
2013-07-17 20:10:00,87.9,77.0,26.93,NE,51,0.0,-999.0,70,-99.99,,,0.00,weatherlink.com 1.10,2013-07-18 00:10:00,
2013-07-17 20:25:00,87.4,77.0,26.93,NE,51,0.0,-999.0,71,-99.99,,,0.00,weatherlink.com 1.10,2013-07-18 00:25:00,
2013-07-17 20:40:00,86.8,77.0,26.93,NE,51,0.0,-999.0,72,-99.99,,,0.00,weatherlink.com 1.10,2013-07-18 00:40:00,
2013-07-17 20:55:00,86.2,77.0,26.93,NE,51,0.0,-999.0,74,-99.99,,,0.00,weatherlink.com 1.10,2013-07-18 00:55:00,
2013-07-17 21:10:00,85.7,77.0,26.93,NE,51,0.0,-999.0,75,-99.99,,,0.00,weatherlink.com 1.10,2013-07-18 01:10:00,
2013-07-17 21:25:00,85.0,77.0,26.93,NE,51,0.0,-999.0,77,-99.99,,,0.00,weatherlink.com 1.10,2013-07-18 01:25:00,
2013-07-17 21:40:00,84.4,77.0,26.93,NE,51,0.0,-999.0,78,-99.99,,,0.00,weatherlink.com 1.10,2013-07-18 01:40:00,
2013-07-17 21:55:00,83.9,77.0,26.93,NE,51,0.0,-999.0,79,-99.99,,,0.00,weatherlink.com 1.10,2013-07-18 01:55:00,
2013-07-17 22:10:00,83.4,77.0,26.93,NE,51,0.0,-999.0,80,-99.99,,,0.00,weatherlink.com 1.10,2013-07-18 02:10:00,
2013-07-17 22:25:00,83.1,77.0,26.93,NE,51,0.0,-999.0,81,-99.99,,,0.00,weatherlink.com 1.10,2013-07-18 02:25:00,
2013-07-17 22:40:00,82.7,76.0,26.93,NE,51,0.0,-999.0,81,-99.99,,,0.00,weatherlink.com 1.10,2013-07-18 02:40:00,
2013-07-17 22:55:00,82.2,76.0,26.93,NE,51,0.0,-999.0,82,-99.99,,,0.00,weatherlink.com 1.10,2013-07-18 02:55:00,
2013-07-17 23:10:00,81.8,76.0,26.93,NE,51,0.0,-999.0,83,-99.99,,,0.00,weatherlink.com 1.10,2013-07-18 03:10:00,
2013-07-17 23:25:00,81.4,76.0,26.93,NE,51,0.0,-999.0,84,-99.99,,,0.00,weatherlink.com 1.10,2013-07-18 03:25:00,
2013-07-17 23:40:00,81.0,76.0,26.93,NE,51,0.0,-999.0,84,-99.99,,,0.00,weatherlink.com 1.10,2013-07-18 03:40:00,
2013-07-17 23:54:00,80.8,76.0,26.93,NE,51,0.0,-999.0,85,-99.99,,,0.00,weatherlink.com 1.10,2013-07-18 03:54:00,